sensor_id;sensor_type;location;lat;lon;timestamp;P1;durP1;ratioP1;P2;durP2;ratioP2
19609;SDS011;9952;47.122;-1.638;2024-02-14T00:03:00;13.93;;;2.37;;
19609;SDS011;9952;47.122;-1.638;2024-02-14T00:07:41;20.53;;;3.43;;
19609;SDS011;9952;47.122;-1.638;2024-02-14T00:12:22;17.80;;;2.70;;
19609;SDS011;9952;47.122;-1.638;2024-02-14T00:17:04;17.40;;;3.10;;
19609;SDS011;9952;47.122;-1.638;2024-02-14T00:21:45;19.87;;;3.53;;
19609;SDS011;9952;47.122;-1.638;2024-02-14T00:26:26;15.93;;;2.93;;
19609;SDS011;9952;47.122;-1.638;2024-02-14T00:31:07;25.77;;;4.57;;
19609;SDS011;9952;47.122;-1.638;2024-02-14T00:35:47;17.30;;;2.70;;
19609;SDS011;9952;47.122;-1.638;2024-02-14T00:40:28;19.17;;;2.90;;
19609;SDS011;9952;47.122;-1.638;2024-02-14T00:45:09;17.13;;;2.93;;
19609;SDS011;9952;47.122;-1.638;2024-02-14T00:49:49;18.63;;;3.20;;
19609;SDS011;9952;47.122;-1.638;2024-02-14T00:54:30;24.80;;;3.57;;
19609;SDS011;9952;47.122;-1.638;2024-02-14T00:59:11;21.97;;;3.13;;
19609;SDS011;9952;47.122;-1.638;2024-02-14T01:03:51;17.07;;;3.20;;
19609;SDS011;9952;47.122;-1.638;2024-02-14T01:08:32;25.03;;;3.67;;
19609;SDS011;9952;47.122;-1.638;2024-02-14T01:13:14;26.17;;;3.13;;
19609;SDS011;9952;47.122;-1.638;2024-02-14T01:17:55;17.73;;;3.10;;
19609;SDS011;9952;47.122;-1.638;2024-02-14T01:22:35;17.80;;;3.20;;
19609;SDS011;9952;47.122;-1.638;2024-02-14T01:27:16;16.20;;;3.10;;
19609;SDS011;9952;47.122;-1.638;2024-02-14T01:31:57;17.50;;;3.57;;
19609;SDS011;9952;47.122;-1.638;2024-02-14T01:36:38;16.37;;;2.87;;
19609;SDS011;9952;47.122;-1.638;2024-02-14T01:41:18;21.77;;;3.00;;
19609;SDS011;9952;47.122;-1.638;2024-02-14T01:46:05;19.53;;;2.57;;
19609;SDS011;9952;47.122;-1.638;2024-02-14T01:50:46;18.23;;;2.90;;
19609;SDS011;9952;47.122;-1.638;2024-02-14T01:55:27;22.73;;;3.40;;
19609;SDS011;9952;47.122;-1.638;2024-02-14T02:00:08;13.27;;;2.67;;
19609;SDS011;9952;47.122;-1.638;2024-02-14T02:04:49;20.13;;;3.30;;
19609;SDS011;9952;47.122;-1.638;2024-02-14T02:09:30;15.40;;;2.50;;
19609;SDS011;9952;47.122;-1.638;2024-02-14T02:14:12;11.47;;;2.10;;
19609;SDS011;9952;47.122;-1.638;2024-02-14T02:18:53;22.07;;;2.77;;
19609;SDS011;9952;47.122;-1.638;2024-02-14T02:23:34;13.83;;;2.80;;
19609;SDS011;9952;47.122;-1.638;2024-02-14T02:28:15;12.00;;;2.60;;
19609;SDS011;9952;47.122;-1.638;2024-02-14T02:32:56;14.60;;;2.00;;
19609;SDS011;9952;47.122;-1.638;2024-02-14T02:37:38;20.60;;;2.57;;
19609;SDS011;9952;47.122;-1.638;2024-02-14T02:42:19;8.73;;;1.90;;
19609;SDS011;9952;47.122;-1.638;2024-02-14T02:46:59;15.57;;;1.43;;
19609;SDS011;9952;47.122;-1.638;2024-02-14T02:51:40;15.13;;;2.03;;
19609;SDS011;9952;47.122;-1.638;2024-02-14T02:56:21;23.40;;;2.80;;
19609;SDS011;9952;47.122;-1.638;2024-02-14T03:01:02;12.67;;;2.47;;
19609;SDS011;9952;47.122;-1.638;2024-02-14T03:05:45;10.70;;;1.83;;
19609;SDS011;9952;47.122;-1.638;2024-02-14T03:10:25;10.70;;;2.30;;
19609;SDS011;9952;47.122;-1.638;2024-02-14T03:15:09;13.10;;;1.93;;
19609;SDS011;9952;47.122;-1.638;2024-02-14T03:19:50;24.10;;;2.83;;
19609;SDS011;9952;47.122;-1.638;2024-02-14T03:24:31;15.27;;;2.20;;
19609;SDS011;9952;47.122;-1.638;2024-02-14T03:29:15;12.07;;;1.70;;
19609;SDS011;9952;47.122;-1.638;2024-02-14T03:33:56;15.17;;;2.33;;
19609;SDS011;9952;47.122;-1.638;2024-02-14T03:38:37;10.27;;;1.67;;
19609;SDS011;9952;47.122;-1.638;2024-02-14T03:43:19;10.70;;;1.80;;
19609;SDS011;9952;47.122;-1.638;2024-02-14T03:48:01;19.67;;;2.20;;
19609;SDS011;9952;47.122;-1.638;2024-02-14T03:52:42;12.10;;;1.67;;
19609;SDS011;9952;47.122;-1.638;2024-02-14T03:57:23;20.13;;;2.07;;
19609;SDS011;9952;47.122;-1.638;2024-02-14T04:02:05;14.50;;;1.60;;
19609;SDS011;9952;47.122;-1.638;2024-02-14T04:06:49;14.37;;;1.80;;
19609;SDS011;9952;47.122;-1.638;2024-02-14T04:11:30;15.13;;;1.97;;
19609;SDS011;9952;47.122;-1.638;2024-02-14T04:16:11;8.33;;;1.60;;
19609;SDS011;9952;47.122;-1.638;2024-02-14T04:20:52;17.13;;;2.53;;
19609;SDS011;9952;47.122;-1.638;2024-02-14T04:25:32;15.50;;;2.20;;
19609;SDS011;9952;47.122;-1.638;2024-02-14T04:30:14;13.90;;;2.20;;
19609;SDS011;9952;47.122;-1.638;2024-02-14T04:34:54;11.57;;;2.00;;
19609;SDS011;9952;47.122;-1.638;2024-02-14T04:39:38;20.73;;;2.43;;
19609;SDS011;9952;47.122;-1.638;2024-02-14T04:44:19;13.03;;;1.80;;
19609;SDS011;9952;47.122;-1.638;2024-02-14T04:48:59;14.23;;;1.87;;
19609;SDS011;9952;47.122;-1.638;2024-02-14T04:53:42;19.90;;;2.13;;
19609;SDS011;9952;47.122;-1.638;2024-02-14T04:58:23;12.97;;;2.30;;
19609;SDS011;9952;47.122;-1.638;2024-02-14T05:03:05;10.73;;;1.70;;
19609;SDS011;9952;47.122;-1.638;2024-02-14T05:07:46;21.93;;;2.23;;
19609;SDS011;9952;47.122;-1.638;2024-02-14T05:12:27;19.63;;;1.90;;
19609;SDS011;9952;47.122;-1.638;2024-02-14T05:17:08;15.87;;;1.80;;
19609;SDS011;9952;47.122;-1.638;2024-02-14T05:21:49;10.50;;;2.20;;
19609;SDS011;9952;47.122;-1.638;2024-02-14T05:26:29;19.77;;;2.83;;
19609;SDS011;9952;47.122;-1.638;2024-02-14T05:31:10;15.33;;;1.93;;
19609;SDS011;9952;47.122;-1.638;2024-02-14T05:35:51;20.17;;;2.60;;
19609;SDS011;9952;47.122;-1.638;2024-02-14T05:40:32;18.30;;;2.17;;
19609;SDS011;9952;47.122;-1.638;2024-02-14T05:45:13;12.43;;;2.63;;
19609;SDS011;9952;47.122;-1.638;2024-02-14T05:49:54;19.83;;;2.23;;
19609;SDS011;9952;47.122;-1.638;2024-02-14T05:54:34;14.57;;;2.10;;
19609;SDS011;9952;47.122;-1.638;2024-02-14T05:59:15;17.87;;;2.50;;
19609;SDS011;9952;47.122;-1.638;2024-02-14T06:03:56;14.10;;;2.23;;
19609;SDS011;9952;47.122;-1.638;2024-02-14T06:08:36;11.20;;;2.20;;
19609;SDS011;9952;47.122;-1.638;2024-02-14T06:13:17;15.13;;;2.27;;
19609;SDS011;9952;47.122;-1.638;2024-02-14T06:17:58;16.87;;;2.33;;
19609;SDS011;9952;47.122;-1.638;2024-02-14T06:22:38;14.50;;;1.83;;
19609;SDS011;9952;47.122;-1.638;2024-02-14T06:27:19;12.10;;;1.80;;
19609;SDS011;9952;47.122;-1.638;2024-02-14T06:32:00;14.03;;;2.13;;
19609;SDS011;9952;47.122;-1.638;2024-02-14T06:36:40;10.47;;;1.70;;
19609;SDS011;9952;47.122;-1.638;2024-02-14T06:41:21;10.73;;;1.93;;
19609;SDS011;9952;47.122;-1.638;2024-02-14T06:46:02;12.53;;;2.20;;
19609;SDS011;9952;47.122;-1.638;2024-02-14T06:50:42;14.37;;;2.20;;
19609;SDS011;9952;47.122;-1.638;2024-02-14T06:55:23;20.30;;;2.00;;
19609;SDS011;9952;47.122;-1.638;2024-02-14T07:00:04;11.10;;;1.73;;
19609;SDS011;9952;47.122;-1.638;2024-02-14T07:04:47;14.63;;;1.97;;
19609;SDS011;9952;47.122;-1.638;2024-02-14T07:09:28;17.73;;;1.97;;
19609;SDS011;9952;47.122;-1.638;2024-02-14T07:14:09;12.67;;;1.73;;
19609;SDS011;9952;47.122;-1.638;2024-02-14T07:18:50;16.13;;;2.47;;
19609;SDS011;9952;47.122;-1.638;2024-02-14T07:23:31;6.27;;;1.40;;
19609;SDS011;9952;47.122;-1.638;2024-02-14T07:28:13;16.43;;;2.27;;
19609;SDS011;9952;47.122;-1.638;2024-02-14T07:32:53;18.87;;;2.47;;
19609;SDS011;9952;47.122;-1.638;2024-02-14T07:37:34;10.67;;;2.40;;
19609;SDS011;9952;47.122;-1.638;2024-02-14T07:42:15;16.63;;;2.20;;
19609;SDS011;9952;47.122;-1.638;2024-02-14T07:46:55;12.37;;;2.13;;
19609;SDS011;9952;47.122;-1.638;2024-02-14T07:51:36;15.90;;;2.00;;
19609;SDS011;9952;47.122;-1.638;2024-02-14T07:56:17;18.43;;;3.10;;
19609;SDS011;9952;47.122;-1.638;2024-02-14T08:00:58;13.47;;;1.97;;
19609;SDS011;9952;47.122;-1.638;2024-02-14T08:05:39;13.10;;;2.20;;
19609;SDS011;9952;47.122;-1.638;2024-02-14T08:10:21;14.07;;;1.80;;
19609;SDS011;9952;47.122;-1.638;2024-02-14T08:15:02;16.60;;;2.10;;
19609;SDS011;9952;47.122;-1.638;2024-02-14T08:19:45;19.77;;;2.20;;
19609;SDS011;9952;47.122;-1.638;2024-02-14T08:24:26;13.03;;;2.00;;
19609;SDS011;9952;47.122;-1.638;2024-02-14T08:29:07;12.13;;;1.67;;
19609;SDS011;9952;47.122;-1.638;2024-02-14T08:33:50;10.67;;;1.93;;
19609;SDS011;9952;47.122;-1.638;2024-02-14T08:38:30;8.63;;;1.73;;
19609;SDS011;9952;47.122;-1.638;2024-02-14T08:43:12;17.03;;;1.87;;
19609;SDS011;9952;47.122;-1.638;2024-02-14T08:47:52;9.87;;;1.47;;
19609;SDS011;9952;47.122;-1.638;2024-02-14T08:52:33;13.47;;;2.53;;
19609;SDS011;9952;47.122;-1.638;2024-02-14T08:57:14;12.23;;;1.83;;
19609;SDS011;9952;47.122;-1.638;2024-02-14T09:01:55;11.97;;;1.87;;
19609;SDS011;9952;47.122;-1.638;2024-02-14T09:06:36;18.57;;;1.73;;
19609;SDS011;9952;47.122;-1.638;2024-02-14T09:11:19;11.27;;;1.40;;
19609;SDS011;9952;47.122;-1.638;2024-02-14T09:16:00;13.37;;;2.13;;
19609;SDS011;9952;47.122;-1.638;2024-02-14T09:20:41;10.27;;;1.83;;
19609;SDS011;9952;47.122;-1.638;2024-02-14T09:25:26;11.87;;;1.97;;
19609;SDS011;9952;47.122;-1.638;2024-02-14T09:30:06;10.73;;;1.70;;
19609;SDS011;9952;47.122;-1.638;2024-02-14T09:34:47;13.17;;;2.07;;
19609;SDS011;9952;47.122;-1.638;2024-02-14T09:39:28;8.03;;;1.63;;
19609;SDS011;9952;47.122;-1.638;2024-02-14T09:44:09;10.27;;;1.70;;
19609;SDS011;9952;47.122;-1.638;2024-02-14T09:48:49;13.57;;;2.03;;
19609;SDS011;9952;47.122;-1.638;2024-02-14T09:53:32;11.90;;;2.20;;
19609;SDS011;9952;47.122;-1.638;2024-02-14T09:58:13;15.53;;;1.97;;
19609;SDS011;9952;47.122;-1.638;2024-02-14T10:02:54;15.97;;;2.10;;
19609;SDS011;9952;47.122;-1.638;2024-02-14T10:07:42;7.07;;;1.17;;
19609;SDS011;9952;47.122;-1.638;2024-02-14T10:12:23;10.00;;;1.93;;
19609;SDS011;9952;47.122;-1.638;2024-02-14T10:17:04;12.33;;;1.70;;
19609;SDS011;9952;47.122;-1.638;2024-02-14T10:21:57;10.13;;;1.40;;
19609;SDS011;9952;47.122;-1.638;2024-02-14T10:26:40;11.27;;;1.87;;
19609;SDS011;9952;47.122;-1.638;2024-02-14T10:31:26;10.13;;;1.83;;
19609;SDS011;9952;47.122;-1.638;2024-02-14T10:36:07;12.80;;;1.43;;
19609;SDS011;9952;47.122;-1.638;2024-02-14T10:40:48;9.23;;;1.37;;
19609;SDS011;9952;47.122;-1.638;2024-02-14T10:45:31;8.43;;;1.53;;
19609;SDS011;9952;47.122;-1.638;2024-02-14T10:50:12;9.00;;;1.73;;
19609;SDS011;9952;47.122;-1.638;2024-02-14T10:54:55;9.50;;;1.50;;
19609;SDS011;9952;47.122;-1.638;2024-02-14T10:59:38;9.37;;;1.57;;
19609;SDS011;9952;47.122;-1.638;2024-02-14T11:04:24;23.27;;;8.07;;
19609;SDS011;9952;47.122;-1.638;2024-02-14T11:09:05;9.60;;;1.70;;
19609;SDS011;9952;47.122;-1.638;2024-02-14T11:13:53;7.53;;;1.33;;
19609;SDS011;9952;47.122;-1.638;2024-02-14T11:18:34;4.47;;;1.07;;
19609;SDS011;9952;47.122;-1.638;2024-02-14T11:23:20;8.63;;;1.83;;
19609;SDS011;9952;47.122;-1.638;2024-02-14T11:28:18;6.10;;;1.10;;
19609;SDS011;9952;47.122;-1.638;2024-02-14T11:33:33;9.67;;;1.40;;
19609;SDS011;9952;47.122;-1.638;2024-02-14T11:38:08;11.10;;;1.52;;
19609;SDS011;9952;47.122;-1.638;2024-02-14T11:42:49;9.57;;;1.10;;
19609;SDS011;9952;47.122;-1.638;2024-02-14T11:47:30;5.60;;;1.03;;
19609;SDS011;9952;47.122;-1.638;2024-02-14T11:52:11;5.23;;;1.00;;
19609;SDS011;9952;47.122;-1.638;2024-02-14T11:56:54;9.10;;;1.10;;
19609;SDS011;9952;47.122;-1.638;2024-02-14T12:01:35;8.67;;;1.43;;
19609;SDS011;9952;47.122;-1.638;2024-02-14T12:06:16;6.70;;;0.97;;
19609;SDS011;9952;47.122;-1.638;2024-02-14T12:10:57;8.43;;;2.13;;
19609;SDS011;9952;47.122;-1.638;2024-02-14T12:15:38;5.50;;;1.33;;
19609;SDS011;9952;47.122;-1.638;2024-02-14T12:20:21;7.17;;;1.30;;
19609;SDS011;9952;47.122;-1.638;2024-02-14T12:25:03;4.40;;;0.97;;
19609;SDS011;9952;47.122;-1.638;2024-02-14T12:29:46;5.03;;;0.90;;
19609;SDS011;9952;47.122;-1.638;2024-02-14T12:34:27;4.37;;;0.90;;
19609;SDS011;9952;47.122;-1.638;2024-02-14T12:39:08;5.23;;;1.40;;
19609;SDS011;9952;47.122;-1.638;2024-02-14T12:43:52;6.77;;;1.40;;
19609;SDS011;9952;47.122;-1.638;2024-02-14T12:48:33;7.57;;;1.23;;
19609;SDS011;9952;47.122;-1.638;2024-02-14T12:53:14;5.43;;;1.20;;
19609;SDS011;9952;47.122;-1.638;2024-02-14T12:57:55;5.63;;;1.10;;
19609;SDS011;9952;47.122;-1.638;2024-02-14T13:02:37;4.70;;;1.23;;
19609;SDS011;9952;47.122;-1.638;2024-02-14T13:07:20;6.30;;;1.90;;
19609;SDS011;9952;47.122;-1.638;2024-02-14T13:12:01;3.03;;;0.90;;
19609;SDS011;9952;47.122;-1.638;2024-02-14T13:16:42;7.00;;;1.20;;
19609;SDS011;9952;47.122;-1.638;2024-02-14T13:21:23;5.87;;;1.43;;
19609;SDS011;9952;47.122;-1.638;2024-02-14T13:26:04;9.60;;;1.43;;
19609;SDS011;9952;47.122;-1.638;2024-02-14T13:30:45;3.23;;;1.20;;
19609;SDS011;9952;47.122;-1.638;2024-02-14T13:35:26;3.80;;;1.10;;
19609;SDS011;9952;47.122;-1.638;2024-02-14T13:40:07;2.67;;;1.10;;
19609;SDS011;9952;47.122;-1.638;2024-02-14T13:44:52;3.33;;;0.77;;
19609;SDS011;9952;47.122;-1.638;2024-02-14T13:49:34;3.57;;;0.70;;
19609;SDS011;9952;47.122;-1.638;2024-02-14T13:54:14;2.00;;;0.77;;
19609;SDS011;9952;47.122;-1.638;2024-02-14T13:58:55;2.83;;;0.90;;
19609;SDS011;9952;47.122;-1.638;2024-02-14T14:03:36;2.83;;;0.77;;
19609;SDS011;9952;47.122;-1.638;2024-02-14T14:08:17;4.53;;;0.90;;
19609;SDS011;9952;47.122;-1.638;2024-02-14T14:12:58;2.43;;;0.77;;
19609;SDS011;9952;47.122;-1.638;2024-02-14T14:17:38;5.83;;;0.93;;
19609;SDS011;9952;47.122;-1.638;2024-02-14T14:22:19;3.27;;;0.83;;
19609;SDS011;9952;47.122;-1.638;2024-02-14T14:26:59;6.13;;;1.43;;
19609;SDS011;9952;47.122;-1.638;2024-02-14T14:31:40;1.40;;;0.87;;
19609;SDS011;9952;47.122;-1.638;2024-02-14T14:36:21;3.03;;;1.00;;
19609;SDS011;9952;47.122;-1.638;2024-02-14T14:41:02;2.83;;;0.70;;
19609;SDS011;9952;47.122;-1.638;2024-02-14T14:45:42;3.13;;;1.10;;
19609;SDS011;9952;47.122;-1.638;2024-02-14T14:50:23;2.70;;;1.00;;
19609;SDS011;9952;47.122;-1.638;2024-02-14T14:55:05;3.40;;;0.97;;
19609;SDS011;9952;47.122;-1.638;2024-02-14T14:59:46;4.17;;;0.83;;
19609;SDS011;9952;47.122;-1.638;2024-02-14T15:04:26;3.50;;;0.70;;
19609;SDS011;9952;47.122;-1.638;2024-02-14T15:09:07;3.17;;;1.13;;
19609;SDS011;9952;47.122;-1.638;2024-02-14T15:13:48;4.07;;;1.27;;
19609;SDS011;9952;47.122;-1.638;2024-02-14T15:18:29;1.27;;;0.70;;
19609;SDS011;9952;47.122;-1.638;2024-02-14T15:23:10;2.40;;;0.80;;
19609;SDS011;9952;47.122;-1.638;2024-02-14T15:27:51;1.57;;;0.97;;
19609;SDS011;9952;47.122;-1.638;2024-02-14T15:32:35;2.47;;;0.97;;
19609;SDS011;9952;47.122;-1.638;2024-02-14T15:37:34;3.53;;;1.10;;
19609;SDS011;9952;47.122;-1.638;2024-02-14T15:42:15;2.37;;;0.93;;
19609;SDS011;9952;47.122;-1.638;2024-02-14T15:46:57;3.47;;;0.80;;
19609;SDS011;9952;47.122;-1.638;2024-02-14T15:51:39;2.70;;;0.93;;
19609;SDS011;9952;47.122;-1.638;2024-02-14T15:56:20;1.73;;;0.70;;
19609;SDS011;9952;47.122;-1.638;2024-02-14T16:01:01;3.47;;;1.03;;
19609;SDS011;9952;47.122;-1.638;2024-02-14T16:05:41;2.57;;;0.97;;
19609;SDS011;9952;47.122;-1.638;2024-02-14T16:10:23;3.97;;;1.00;;
19609;SDS011;9952;47.122;-1.638;2024-02-14T16:15:04;2.10;;;1.00;;
19609;SDS011;9952;47.122;-1.638;2024-02-14T16:19:45;2.73;;;0.87;;
19609;SDS011;9952;47.122;-1.638;2024-02-14T16:24:26;4.30;;;0.97;;
19609;SDS011;9952;47.122;-1.638;2024-02-14T16:29:07;3.00;;;1.10;;
19609;SDS011;9952;47.122;-1.638;2024-02-14T16:33:47;2.03;;;0.80;;
19609;SDS011;9952;47.122;-1.638;2024-02-14T16:38:28;4.10;;;1.00;;
19609;SDS011;9952;47.122;-1.638;2024-02-14T16:43:10;2.60;;;0.90;;
19609;SDS011;9952;47.122;-1.638;2024-02-14T16:47:50;1.83;;;0.87;;
19609;SDS011;9952;47.122;-1.638;2024-02-14T16:52:32;4.20;;;0.90;;
19609;SDS011;9952;47.122;-1.638;2024-02-14T16:57:12;3.03;;;1.10;;
19609;SDS011;9952;47.122;-1.638;2024-02-14T17:01:53;1.03;;;0.70;;
19609;SDS011;9952;47.122;-1.638;2024-02-14T17:06:34;1.43;;;0.97;;
19609;SDS011;9952;47.122;-1.638;2024-02-14T17:11:15;3.37;;;1.00;;
19609;SDS011;9952;47.122;-1.638;2024-02-14T17:15:56;1.60;;;0.97;;
19609;SDS011;9952;47.122;-1.638;2024-02-14T17:20:37;2.70;;;1.13;;
19609;SDS011;9952;47.122;-1.638;2024-02-14T17:25:18;4.00;;;1.10;;
19609;SDS011;9952;47.122;-1.638;2024-02-14T17:29:59;2.40;;;1.10;;
19609;SDS011;9952;47.122;-1.638;2024-02-14T17:34:39;3.57;;;1.13;;
19609;SDS011;9952;47.122;-1.638;2024-02-14T17:39:21;3.37;;;1.20;;
19609;SDS011;9952;47.122;-1.638;2024-02-14T17:44:01;5.43;;;1.40;;
19609;SDS011;9952;47.122;-1.638;2024-02-14T17:48:43;1.93;;;1.10;;
19609;SDS011;9952;47.122;-1.638;2024-02-14T17:53:23;3.87;;;1.17;;
19609;SDS011;9952;47.122;-1.638;2024-02-14T17:58:07;3.80;;;1.70;;
19609;SDS011;9952;47.122;-1.638;2024-02-14T18:02:49;3.27;;;1.27;;
19609;SDS011;9952;47.122;-1.638;2024-02-14T18:07:29;2.03;;;0.93;;
19609;SDS011;9952;47.122;-1.638;2024-02-14T18:12:10;3.03;;;1.40;;
19609;SDS011;9952;47.122;-1.638;2024-02-14T18:16:51;1.27;;;1.10;;
19609;SDS011;9952;47.122;-1.638;2024-02-14T18:21:32;2.83;;;1.30;;
19609;SDS011;9952;47.122;-1.638;2024-02-14T18:26:12;3.10;;;1.50;;
19609;SDS011;9952;47.122;-1.638;2024-02-14T18:30:53;4.00;;;1.20;;
19609;SDS011;9952;47.122;-1.638;2024-02-14T18:35:35;4.17;;;1.30;;
19609;SDS011;9952;47.122;-1.638;2024-02-14T18:40:16;3.60;;;1.30;;
19609;SDS011;9952;47.122;-1.638;2024-02-14T18:44:57;3.47;;;1.60;;
19609;SDS011;9952;47.122;-1.638;2024-02-14T18:49:38;3.10;;;1.10;;
19609;SDS011;9952;47.122;-1.638;2024-02-14T18:54:24;4.33;;;1.50;;
19609;SDS011;9952;47.122;-1.638;2024-02-14T18:59:05;2.87;;;1.40;;
19609;SDS011;9952;47.122;-1.638;2024-02-14T19:03:46;2.80;;;1.50;;
19609;SDS011;9952;47.122;-1.638;2024-02-14T19:08:27;3.77;;;1.63;;
19609;SDS011;9952;47.122;-1.638;2024-02-14T19:13:09;2.77;;;1.83;;
19609;SDS011;9952;47.122;-1.638;2024-02-14T19:17:50;4.80;;;2.00;;
19609;SDS011;9952;47.122;-1.638;2024-02-14T19:22:31;4.53;;;2.30;;
19609;SDS011;9952;47.122;-1.638;2024-02-14T19:27:12;6.00;;;2.23;;
19609;SDS011;9952;47.122;-1.638;2024-02-14T19:31:53;4.63;;;1.67;;
19609;SDS011;9952;47.122;-1.638;2024-02-14T19:36:33;4.93;;;1.83;;
19609;SDS011;9952;47.122;-1.638;2024-02-14T19:41:15;7.87;;;2.10;;
19609;SDS011;9952;47.122;-1.638;2024-02-14T19:45:56;5.43;;;1.70;;
19609;SDS011;9952;47.122;-1.638;2024-02-14T19:50:37;5.60;;;1.90;;
19609;SDS011;9952;47.122;-1.638;2024-02-14T19:55:18;6.20;;;1.77;;
19609;SDS011;9952;47.122;-1.638;2024-02-14T19:59:58;3.20;;;1.70;;
19609;SDS011;9952;47.122;-1.638;2024-02-14T20:04:40;4.23;;;2.27;;
19609;SDS011;9952;47.122;-1.638;2024-02-14T20:09:21;5.23;;;1.90;;
19609;SDS011;9952;47.122;-1.638;2024-02-14T20:14:02;5.23;;;2.10;;
19609;SDS011;9952;47.122;-1.638;2024-02-14T20:18:42;2.87;;;1.97;;
19609;SDS011;9952;47.122;-1.638;2024-02-14T20:23:23;5.00;;;2.27;;
19609;SDS011;9952;47.122;-1.638;2024-02-14T20:28:04;5.37;;;2.47;;
19609;SDS011;9952;47.122;-1.638;2024-02-14T20:32:45;5.83;;;2.40;;
19609;SDS011;9952;47.122;-1.638;2024-02-14T20:37:26;4.37;;;2.47;;
19609;SDS011;9952;47.122;-1.638;2024-02-14T20:42:07;5.83;;;2.37;;
19609;SDS011;9952;47.122;-1.638;2024-02-14T20:46:48;8.23;;;2.93;;
19609;SDS011;9952;47.122;-1.638;2024-02-14T20:51:34;5.40;;;2.40;;
19609;SDS011;9952;47.122;-1.638;2024-02-14T20:56:15;3.77;;;2.07;;
19609;SDS011;9952;47.122;-1.638;2024-02-14T21:00:56;6.27;;;2.43;;
19609;SDS011;9952;47.122;-1.638;2024-02-14T21:05:36;6.97;;;2.60;;
19609;SDS011;9952;47.122;-1.638;2024-02-14T21:10:17;6.47;;;2.50;;
19609;SDS011;9952;47.122;-1.638;2024-02-14T21:14:58;4.67;;;2.23;;
19609;SDS011;9952;47.122;-1.638;2024-02-14T21:19:39;5.40;;;2.50;;
19609;SDS011;9952;47.122;-1.638;2024-02-14T21:24:20;6.87;;;2.50;;
19609;SDS011;9952;47.122;-1.638;2024-02-14T21:29:00;6.50;;;2.40;;
19609;SDS011;9952;47.122;-1.638;2024-02-14T21:33:41;7.13;;;2.23;;
19609;SDS011;9952;47.122;-1.638;2024-02-14T21:38:22;6.60;;;2.57;;
19609;SDS011;9952;47.122;-1.638;2024-02-14T21:43:03;5.80;;;2.20;;
19609;SDS011;9952;47.122;-1.638;2024-02-14T21:47:44;5.90;;;2.80;;
19609;SDS011;9952;47.122;-1.638;2024-02-14T21:52:25;6.47;;;2.93;;
19609;SDS011;9952;47.122;-1.638;2024-02-14T21:57:09;5.47;;;2.43;;
19609;SDS011;9952;47.122;-1.638;2024-02-14T22:01:51;7.33;;;2.97;;
19609;SDS011;9952;47.122;-1.638;2024-02-14T22:06:32;7.20;;;2.53;;
19609;SDS011;9952;47.122;-1.638;2024-02-14T22:11:13;6.23;;;3.00;;
19609;SDS011;9952;47.122;-1.638;2024-02-14T22:15:53;4.57;;;2.63;;
19609;SDS011;9952;47.122;-1.638;2024-02-14T22:20:34;8.23;;;3.40;;
19609;SDS011;9952;47.122;-1.638;2024-02-14T22:25:15;8.47;;;3.50;;
19609;SDS011;9952;47.122;-1.638;2024-02-14T22:29:56;6.60;;;3.27;;
19609;SDS011;9952;47.122;-1.638;2024-02-14T22:34:36;6.77;;;3.70;;
19609;SDS011;9952;47.122;-1.638;2024-02-14T22:39:20;8.53;;;3.70;;
19609;SDS011;9952;47.122;-1.638;2024-02-14T22:44:00;8.23;;;4.23;;
19609;SDS011;9952;47.122;-1.638;2024-02-14T22:48:41;7.17;;;3.70;;
19609;SDS011;9952;47.122;-1.638;2024-02-14T22:53:22;11.57;;;4.20;;
19609;SDS011;9952;47.122;-1.638;2024-02-14T22:58:03;7.47;;;4.40;;
19609;SDS011;9952;47.122;-1.638;2024-02-14T23:02:44;8.27;;;4.03;;
19609;SDS011;9952;47.122;-1.638;2024-02-14T23:07:24;10.57;;;4.63;;
19609;SDS011;9952;47.122;-1.638;2024-02-14T23:12:05;9.90;;;4.70;;
19609;SDS011;9952;47.122;-1.638;2024-02-14T23:16:46;8.03;;;4.70;;
19609;SDS011;9952;47.122;-1.638;2024-02-14T23:21:26;8.70;;;5.20;;
19609;SDS011;9952;47.122;-1.638;2024-02-14T23:26:08;9.73;;;5.47;;
19609;SDS011;9952;47.122;-1.638;2024-02-14T23:30:48;8.40;;;6.23;;
19609;SDS011;9952;47.122;-1.638;2024-02-14T23:35:30;10.70;;;5.73;;
19609;SDS011;9952;47.122;-1.638;2024-02-14T23:40:10;8.57;;;5.60;;
19609;SDS011;9952;47.122;-1.638;2024-02-14T23:44:51;10.93;;;5.23;;
19609;SDS011;9952;47.122;-1.638;2024-02-14T23:49:32;7.17;;;4.87;;
19609;SDS011;9952;47.122;-1.638;2024-02-14T23:54:14;10.97;;;5.00;;
19609;SDS011;9952;47.122;-1.638;2024-02-14T23:58:55;10.57;;;4.50;;
